Time;durP1;ratioP1;P1;durP2;ratioP2;P2;SDS_P1;SDS_P2;PMS_P1;PMS_P2;Temp;Humidity;BMP_temperature;BMP_pressure;BME280_temperature;BME280_humidity;BME280_pressure;Samples;Min_cycle;Max_cycle;Signal;HPM_P1;HPM_P2
2024/01/29 00:01:22;;;;;;;34.67;12.65;;;9.40;99.90;;;;;;6370767;22;19994;-92
2024/01/29 00:03:48;;;;;;;26.38;12.93;;;9.40;99.90;;;;;;6371114;22;20040;-90
2024/01/29 00:06:14;;;;;;;29.70;12.90;;;9.40;99.90;;;;;;6370879;22;19999;-92
2024/01/29 00:08:40;;;;;;;30.15;14.88;;;9.40;99.90;;;;;;6370967;22;20016;-94
2024/01/29 00:11:09;;;;;;;33.22;15.13;;;9.40;99.90;;;;;;6368062;22;19999;-92
2024/01/29 00:13:34;;;;;;;25.55;13.95;;;9.50;99.90;;;;;;6373193;22;19993;-96
2024/01/29 00:16:02;;;;;;;28.85;13.05;;;9.50;99.90;;;;;;6373706;22;20010;-92
2024/01/29 00:18:28;;;;;;;29.77;13.27;;;9.40;99.90;;;;;;6373464;22;20011;-92
2024/01/29 00:20:57;;;;;;;38.85;15.10;;;9.40;99.90;;;;;;6373495;22;20054;-92
2024/01/29 00:23:23;;;;;;;31.63;12.88;;;9.50;99.90;;;;;;6373243;22;19986;-92
2024/01/29 00:25:48;;;;;;;30.85;13.38;;;9.50;99.90;;;;;;6373080;22;20006;-94
2024/01/29 00:28:14;;;;;;;38.95;16.10;;;9.50;99.90;;;;;;6372884;22;20013;-94
2024/01/29 00:30:40;;;;;;;29.70;14.35;;;9.50;99.90;;;;;;6373194;22;20062;-92
2024/01/29 00:33:05;;;;;;;26.35;12.65;;;9.50;99.90;;;;;;6373082;22;20024;-92
2024/01/29 00:35:31;;;;;;;30.42;13.90;;;9.50;99.90;;;;;;6370909;22;20020;-94
2024/01/29 00:37:57;;;;;;;30.67;13.98;;;9.60;99.90;;;;;;6372911;22;19998;-92
2024/01/29 00:40:24;;;;;;;29.45;13.52;;;9.60;99.90;;;;;;6372825;22;20018;-90
2024/01/29 00:42:50;;;;;;;38.03;14.32;;;9.60;99.90;;;;;;6372481;22;20001;-93
2024/01/29 00:45:15;;;;;;;24.98;12.65;;;9.60;99.90;;;;;;6372580;22;20006;-92
2024/01/29 00:47:41;;;;;;;24.98;13.43;;;9.60;99.90;;;;;;6372596;22;20010;-90
2024/01/29 00:50:08;;;;;;;27.88;12.65;;;9.60;99.90;;;;;;6371304;22;20047;-91
2024/01/29 00:52:36;;;;;;;23.10;11.65;;;9.60;99.90;;;;;;6399799;22;19990;-92
2024/01/29 00:55:02;;;;;;;34.20;14.70;;;9.60;99.90;;;;;;6372187;22;20074;-91
2024/01/29 00:57:29;;;;;;;34.65;14.65;;;9.60;99.90;;;;;;6345881;22;20010;-91
2024/01/29 00:59:55;;;;;;;26.27;13.43;;;9.60;99.90;;;;;;6346646;22;19998;-90
2024/01/29 01:02:21;;;;;;;31.33;12.02;;;9.60;99.90;;;;;;6372421;22;20047;-90
2024/01/29 01:04:47;;;;;;;33.70;13.80;;;9.70;99.90;;;;;;6372270;22;20068;-91
2024/01/29 01:07:12;;;;;;;30.15;13.07;;;9.70;99.90;;;;;;6372705;22;20011;-90
2024/01/29 01:09:38;;;;;;;24.42;12.93;;;9.70;99.90;;;;;;6372069;22;20010;-89
2024/01/29 01:12:04;;;;;;;36.10;14.65;;;9.70;99.90;;;;;;6372507;22;19993;-90
2024/01/29 01:14:30;;;;;;;35.90;13.75;;;9.70;99.90;;;;;;6372719;22;20001;-89
2024/01/29 01:16:56;;;;;;;30.77;13.10;;;9.70;99.90;;;;;;6371994;22;19994;-91
2024/01/29 01:19:22;;;;;;;36.28;13.80;;;9.70;99.90;;;;;;6371510;22;20014;-91
2024/01/29 01:21:48;;;;;;;32.63;15.07;;;9.70;99.90;;;;;;6371348;22;19998;-89
2024/01/29 01:24:14;;;;;;;44.72;15.02;;;9.70;99.90;;;;;;6371012;22;20006;-90
2024/01/29 01:26:39;;;;;;;30.80;13.50;;;9.70;99.90;;;;;;6371569;22;20001;-90
2024/01/29 01:29:05;;;;;;;37.60;16.38;;;9.70;99.90;;;;;;6372347;22;20000;-90
2024/01/29 01:31:31;;;;;;;35.50;14.80;;;9.70;99.90;;;;;;6371634;22;19994;-90
2024/01/29 01:33:57;;;;;;;38.13;14.52;;;9.70;99.90;;;;;;6371286;22;19999;-91
2024/01/29 01:36:23;;;;;;;35.72;13.90;;;9.60;99.90;;;;;;6371195;22;20014;-92
2024/01/29 01:38:48;;;;;;;38.20;15.32;;;9.60;99.90;;;;;;6371960;22;19994;-91
2024/01/29 01:41:14;;;;;;;26.67;13.23;;;9.60;99.90;;;;;;6371994;22;20006;-92
2024/01/29 01:43:40;;;;;;;29.20;13.15;;;9.60;99.90;;;;;;6371070;22;20006;-92
2024/01/29 01:46:06;;;;;;;33.08;14.43;;;9.60;99.90;;;;;;6370866;22;20022;-92
2024/01/29 01:48:36;;;;;;;24.83;12.20;;;9.50;99.90;;;;;;6395377;22;20006;-92
2024/01/29 01:51:04;;;;;;;29.23;14.48;;;9.50;99.90;;;;;;6361634;22;20018;-92
2024/01/29 01:53:35;;;;;;;41.05;16.85;;;9.50;99.90;;;;;;6334902;22;20003;-94
2024/01/29 01:56:01;;;;;;;41.17;16.10;;;9.50;99.90;;;;;;6332869;22;20086;-95
2024/01/29 01:58:32;;;;;;;33.53;13.57;;;9.50;99.90;;;;;;6324472;22;20003;-92
2024/01/29 02:00:58;;;;;;;36.38;16.15;;;9.40;99.90;;;;;;6325195;22;20006;-95
2024/01/29 02:03:25;;;;;;;34.42;15.10;;;9.40;99.90;;;;;;6325530;22;20006;-96
2024/01/29 02:05:51;;;;;;;36.38;15.77;;;9.40;99.90;;;;;;6351398;22;20011;-95
2024/01/29 02:08:18;;;;;;;34.08;15.68;;;9.40;99.90;;;;;;6325236;22;20149;-94
2024/01/29 02:10:45;;;;;;;36.35;16.35;;;9.40;99.90;;;;;;6324902;22;20097;-96
2024/01/29 02:13:14;;;;;;;31.58;13.27;;;9.40;99.90;;;;;;6328304;22;20047;-96
2024/01/29 02:15:41;;;;;;;29.60;13.13;;;9.40;99.90;;;;;;6328553;22;20022;-96
2024/01/29 02:18:07;;;;;;;34.20;13.98;;;9.40;99.90;;;;;;6333549;22;19999;-95
2024/01/29 02:20:37;;;;;;;39.03;16.33;;;9.40;99.90;;;;;;6343497;22;20001;-90
2024/01/29 02:23:03;;;;;;;29.53;14.77;;;9.30;99.90;;;;;;6365603;22;20033;-90
2024/01/29 02:25:29;;;;;;;34.13;14.80;;;9.30;99.90;;;;;;6339676;22;20018;-90
2024/01/29 02:27:55;;;;;;;40.65;16.00;;;9.30;99.90;;;;;;6339771;22;20015;-89
2024/01/29 02:30:20;;;;;;;36.67;17.15;;;9.30;99.90;;;;;;6340032;22;20058;-90
2024/01/29 02:32:46;;;;;;;36.28;14.93;;;9.30;99.90;;;;;;6335233;22;20003;-95
2024/01/29 02:35:12;;;;;;;33.50;14.73;;;9.40;99.90;;;;;;6322230;22;19986;-95
2024/01/29 02:37:38;;;;;;;29.25;14.10;;;9.30;99.90;;;;;;6350974;22;20010;-94
2024/01/29 02:40:07;;;;;;;34.30;15.32;;;9.30;99.90;;;;;;6321876;22;20017;-95
2024/01/29 02:42:33;;;;;;;33.40;16.30;;;9.30;99.90;;;;;;6352454;22;20005;-93
2024/01/29 02:44:59;;;;;;;35.45;15.70;;;9.30;99.90;;;;;;6324569;22;20038;-95
2024/01/29 02:47:25;;;;;;;34.50;15.05;;;9.30;99.90;;;;;;6326973;22;20030;-94
2024/01/29 02:49:51;;;;;;;33.72;14.85;;;9.30;99.90;;;;;;6324666;22;20014;-93
2024/01/29 02:52:16;;;;;;;34.10;15.88;;;9.30;99.90;;;;;;6352982;22;20037;-92
2024/01/29 02:54:42;;;;;;;39.10;15.40;;;9.30;99.90;;;;;;6350744;22;20070;-94
2024/01/29 02:57:08;;;;;;;29.52;14.65;;;9.30;99.90;;;;;;6327513;22;20006;-93
2024/01/29 02:59:33;;;;;;;27.02;13.13;;;9.30;99.90;;;;;;6330171;22;20058;-93
2024/01/29 03:02:00;;;;;;;26.25;12.13;;;9.30;99.90;;;;;;6333828;22;19987;-94
2024/01/29 03:04:26;;;;;;;26.65;13.15;;;9.30;99.90;;;;;;6364084;22;20006;-94
2024/01/29 03:06:52;;;;;;;38.50;15.07;;;9.30;99.90;;;;;;6335964;22;20003;-93
2024/01/29 03:09:17;;;;;;;33.45;14.20;;;9.30;99.90;;;;;;6357337;22;20006;-92
2024/01/29 03:11:44;;;;;;;34.85;12.88;;;9.30;99.90;;;;;;6335196;22;20018;-94
2024/01/29 03:14:10;;;;;;;35.70;16.25;;;9.30;99.90;;;;;;6330671;22;20014;-95
2024/01/29 03:16:36;;;;;;;31.05;16.08;;;9.30;99.90;;;;;;6327417;22;20476;-95
2024/01/29 03:19:02;;;;;;;28.90;14.48;;;9.20;99.90;;;;;;6324945;22;20019;-94
2024/01/29 03:21:28;;;;;;;35.90;15.77;;;9.20;99.90;;;;;;6322180;22;20010;-95
2024/01/29 03:23:57;;;;;;;46.45;18.67;;;9.20;99.90;;;;;;6317996;22;20013;-95
2024/01/29 03:26:23;;;;;;;29.75;14.40;;;9.20;99.90;;;;;;6343000;22;20011;-94
2024/01/29 03:28:48;;;;;;;26.20;13.23;;;9.20;99.90;;;;;;6316796;22;20006;-95
2024/01/29 03:31:14;;;;;;;30.70;15.63;;;9.30;99.90;;;;;;6318343;22;20003;-94
2024/01/29 03:33:40;;;;;;;37.80;15.38;;;9.30;99.90;;;;;;6317526;22;19998;-95
2024/01/29 03:36:07;;;;;;;26.90;12.60;;;9.30;99.90;;;;;;6318240;22;20006;-95
2024/01/29 03:38:33;;;;;;;41.80;16.77;;;9.20;99.90;;;;;;6321880;22;20018;-96
2024/01/29 03:40:59;;;;;;;31.05;13.07;;;9.20;99.90;;;;;;6332245;22;20045;-94
2024/01/29 03:43:25;;;;;;;36.85;15.10;;;9.20;99.90;;;;;;6331206;22;20013;-94
2024/01/29 03:45:52;;;;;;;26.63;12.70;;;9.20;99.90;;;;;;6334975;22;20006;-95
2024/01/29 03:48:18;;;;;;;32.95;15.70;;;9.20;99.90;;;;;;6336129;22;20070;-95
2024/01/29 03:50:44;;;;;;;32.58;13.63;;;9.20;99.90;;;;;;6335084;22;20002;-94
2024/01/29 03:53:10;;;;;;;22.27;12.80;;;9.20;99.90;;;;;;6336293;22;20003;-95
2024/01/29 03:55:36;;;;;;;33.95;16.17;;;9.20;99.90;;;;;;6336802;22;20011;-93
2024/01/29 03:58:02;;;;;;;33.92;15.82;;;9.20;99.90;;;;;;6337015;22;19995;-94
2024/01/29 04:00:29;;;;;;;49.95;17.60;;;9.20;99.90;;;;;;6336338;22;20007;-91
2024/01/29 04:02:55;;;;;;;33.28;15.38;;;9.20;99.90;;;;;;6332938;22;20014;-93
2024/01/29 04:05:21;;;;;;;41.40;18.10;;;9.20;99.90;;;;;;6303709;22;20014;-94
2024/01/29 04:07:47;;;;;;;32.50;15.27;;;9.20;99.90;;;;;;6333001;22;19995;-95
2024/01/29 04:10:13;;;;;;;32.97;16.10;;;9.20;99.90;;;;;;6355161;22;20037;-94
2024/01/29 04:12:39;;;;;;;40.83;18.17;;;9.20;99.90;;;;;;6327821;22;20465;-94
2024/01/29 04:15:05;;;;;;;30.00;14.05;;;9.20;99.90;;;;;;6325262;22;20018;-95
2024/01/29 04:17:31;;;;;;;48.47;18.95;;;9.20;99.90;;;;;;6327977;22;20018;-92
2024/01/29 04:19:56;;;;;;;41.67;18.45;;;9.20;99.90;;;;;;6326782;22;20014;-95
2024/01/29 04:22:22;;;;;;;44.35;18.00;;;9.20;99.90;;;;;;6315800;22;20030;-94
2024/01/29 04:24:48;;;;;;;46.78;18.42;;;9.20;99.90;;;;;;6315211;22;20434;-95
2024/01/29 04:27:14;;;;;;;45.10;17.70;;;9.20;99.90;;;;;;6315932;22;20021;-94
2024/01/29 04:29:40;;;;;;;48.72;19.83;;;9.20;99.90;;;;;;6314610;22;19998;-93
2024/01/29 04:32:06;;;;;;;42.45;18.10;;;9.20;99.90;;;;;;6312597;22;20442;-93
2024/01/29 04:34:32;;;;;;;40.90;16.52;;;9.20;99.90;;;;;;6312533;22;20021;-91
2024/01/29 04:36:57;;;;;;;50.65;18.98;;;9.20;99.90;;;;;;6337814;22;20072;-91
2024/01/29 04:39:23;;;;;;;49.33;20.33;;;9.20;99.90;;;;;;6337738;22;20025;-91
2024/01/29 04:41:49;;;;;;;39.65;18.25;;;9.20;99.90;;;;;;6337014;22;20363;-92
2024/01/29 04:44:15;;;;;;;25.17;14.60;;;9.20;99.90;;;;;;6311393;22;20434;-91
2024/01/29 04:46:40;;;;;;;30.80;14.40;;;9.20;99.90;;;;;;6310525;22;20384;-91
2024/01/29 04:49:06;;;;;;;27.83;12.90;;;9.20;99.90;;;;;;6323263;22;20022;-92
2024/01/29 04:51:33;;;;;;;35.80;15.65;;;9.20;99.90;;;;;;6342270;22;20010;-90
2024/01/29 04:53:58;;;;;;;44.67;17.92;;;9.10;99.90;;;;;;6344016;22;19994;-93
2024/01/29 04:56:24;;;;;;;35.35;16.55;;;9.20;99.90;;;;;;6343933;22;20383;-92
2024/01/29 04:58:50;;;;;;;46.05;19.33;;;9.10;99.90;;;;;;6344615;22;20002;-92
2024/01/29 05:01:16;;;;;;;47.72;20.23;;;9.10;99.90;;;;;;6343641;22;20013;-92
2024/01/29 05:03:43;;;;;;;52.10;19.48;;;9.10;99.90;;;;;;6343929;22;20012;-93
2024/01/29 05:06:09;;;;;;;46.45;20.00;;;9.10;99.90;;;;;;6343655;22;20014;-91
2024/01/29 05:08:35;;;;;;;57.00;21.23;;;9.10;99.90;;;;;;6344075;22;20317;-92
2024/01/29 05:11:01;;;;;;;40.05;18.95;;;9.10;99.90;;;;;;6343574;22;20002;-91
2024/01/29 05:13:26;;;;;;;36.33;16.85;;;9.10;99.90;;;;;;6343970;22;20050;-92
2024/01/29 05:15:52;;;;;;;41.58;18.83;;;9.10;99.90;;;;;;6344698;22;20410;-92
2024/01/29 05:18:18;;;;;;;39.28;18.33;;;9.20;99.90;;;;;;6344814;22;20017;-92
2024/01/29 05:20:45;;;;;;;53.75;22.35;;;9.10;99.90;;;;;;6372756;22;20029;-92
2024/01/29 05:23:12;;;;;;;38.10;18.23;;;9.20;99.90;;;;;;6344475;22;20003;-93
2024/01/29 05:25:38;;;;;;;57.92;21.95;;;9.20;99.90;;;;;;6344718;22;20045;-92
2024/01/29 05:28:04;;;;;;;52.53;20.08;;;9.20;99.90;;;;;;6344720;22;20487;-92
2024/01/29 05:30:30;;;;;;;48.30;19.95;;;9.10;99.90;;;;;;6344941;22;20093;-92
2024/01/29 05:32:56;;;;;;;42.97;17.60;;;9.20;99.90;;;;;;6345311;22;20392;-91
2024/01/29 05:35:23;;;;;;;48.58;21.05;;;9.10;99.90;;;;;;6344639;22;20003;-92
2024/01/29 05:37:51;;;;;;;47.58;22.02;;;9.10;99.90;;;;;;6344540;22;20009;-91
2024/01/29 05:40:26;;;;;;;54.00;23.42;;;9.10;99.90;;;;;;6318191;22;20028;-92
2024/01/29 05:42:59;;;;;;;53.35;21.48;;;9.10;99.90;;;;;;6371753;22;20077;-92
2024/01/29 05:45:26;;;;;;;58.35;23.85;;;9.10;99.90;;;;;;6344640;22;20018;-91
2024/01/29 05:47:52;;;;;;;50.75;22.08;;;9.10;99.90;;;;;;6343908;22;19999;-92
2024/01/29 05:50:18;;;;;;;63.28;25.38;;;9.10;99.90;;;;;;6344017;22;20029;-91
2024/01/29 05:52:43;;;;;;;63.58;26.65;;;9.10;99.90;;;;;;6344197;22;20009;-92
2024/01/29 05:55:10;;;;;;;64.72;26.73;;;9.10;99.90;;;;;;6344266;22;20029;-92
2024/01/29 05:57:36;;;;;;;73.70;27.20;;;9.10;99.90;;;;;;6344399;22;20005;-92
2024/01/29 06:00:13;;;;;;;54.17;22.95;;;9.10;99.90;;;;;;6344511;22;20009;-93
2024/01/29 06:03:06;;;;;;;69.25;26.58;;;9.10;99.90;;;;;;6343555;22;20095;-91
2024/01/29 06:05:35;;;;;;;57.83;26.20;;;9.10;99.90;;;;;;6368495;22;20025;-92
2024/01/29 06:08:01;;;;;;;57.47;24.58;;;9.10;99.90;;;;;;6344081;22;20002;-93
2024/01/29 06:10:27;;;;;;;68.38;27.02;;;9.10;99.90;;;;;;6344401;22;20009;-92
2024/01/29 06:12:54;;;;;;;68.03;25.00;;;9.10;99.90;;;;;;6318550;22;20335;-92
2024/01/29 06:15:20;;;;;;;55.40;24.95;;;9.10;99.90;;;;;;6344021;22;20002;-92
2024/01/29 06:17:46;;;;;;;55.58;24.45;;;9.00;99.90;;;;;;6344336;22;20029;-92
2024/01/29 06:20:15;;;;;;;60.85;25.33;;;9.10;99.90;;;;;;6318443;22;20006;-93
2024/01/29 06:22:44;;;;;;;57.08;24.73;;;9.00;99.90;;;;;;6344289;22;20009;-92
2024/01/29 06:25:11;;;;;;;64.47;24.90;;;9.10;99.90;;;;;;6344266;22;20030;-92
2024/01/29 06:27:37;;;;;;;61.72;25.60;;;9.10;99.90;;;;;;6344675;22;20441;-91
2024/01/29 06:30:03;;;;;;;65.68;25.05;;;9.10;99.90;;;;;;6344099;22;19998;-93
2024/01/29 06:32:29;;;;;;;58.83;25.10;;;9.00;99.90;;;;;;6343923;22;20032;-92
2024/01/29 06:34:57;;;;;;;62.25;25.17;;;9.00;99.90;;;;;;6344350;22;20087;-92
2024/01/29 06:37:50;;;;;;;61.97;24.83;;;9.10;99.90;;;;;;6344533;22;20006;-92
2024/01/29 06:43:09;;;;;;;59.72;23.95;;;9.20;99.90;;;;;;6372414;22;20018;-91
2024/01/29 06:45:42;;;;;;;52.63;23.75;;;9.20;99.90;;;;;;6337158;22;20417;-92
2024/01/29 06:48:11;;;;;;;68.43;24.35;;;9.30;99.90;;;;;;6372550;22;20010;-89
2024/01/29 06:50:40;;;;;;;53.17;23.48;;;9.30;99.90;;;;;;6317894;22;20020;-90
2024/01/29 06:53:06;;;;;;;48.10;22.83;;;9.30;99.90;;;;;;6372378;22;20339;-90
2024/01/29 06:55:32;;;;;;;47.28;20.08;;;9.40;99.90;;;;;;6344100;22;20030;-90
2024/01/29 06:57:59;;;;;;;50.75;21.63;;;9.40;99.90;;;;;;6344625;22;20082;-91
2024/01/29 07:00:25;;;;;;;55.75;22.38;;;9.40;99.90;;;;;;6371189;22;20007;-90
2024/01/29 07:02:50;;;;;;;57.92;22.00;;;9.40;99.90;;;;;;6345983;22;20009;-90
2024/01/29 07:05:16;;;;;;;51.15;23.17;;;9.40;99.90;;;;;;6351778;22;20011;-90
2024/01/29 07:07:43;;;;;;;55.53;23.60;;;9.40;99.90;;;;;;6384261;22;20490;-91
2024/01/29 07:10:09;;;;;;;60.90;24.90;;;9.40;99.90;;;;;;6357300;22;20010;-89
2024/01/29 07:12:34;;;;;;;58.22;25.55;;;9.30;99.90;;;;;;6355877;22;20047;-90
2024/01/29 07:15:03;;;;;;;54.30;23.15;;;9.30;99.90;;;;;;6348220;22;19995;-88
2024/01/29 07:17:29;;;;;;;50.90;23.30;;;9.30;99.90;;;;;;6323521;22;20033;-89
2024/01/29 07:19:55;;;;;;;53.70;23.30;;;9.30;99.90;;;;;;6349758;22;20003;-89
2024/01/29 07:22:37;;;;;;;52.60;22.70;;;9.30;99.90;;;;;;6350660;22;20007;-90
2024/01/29 07:25:12;;;;;;;41.33;20.83;;;9.30;99.90;;;;;;6370563;22;20014;-88
2024/01/29 07:27:42;;;;;;;47.45;20.80;;;9.20;99.90;;;;;;6377142;22;20084;-88
2024/01/29 07:30:09;;;;;;;46.53;20.92;;;9.20;99.90;;;;;;6344505;22;20010;-90
2024/01/29 07:32:34;;;;;;;43.10;20.08;;;9.20;99.90;;;;;;6350153;22;20005;-90
2024/01/29 07:35:01;;;;;;;38.28;19.85;;;9.10;99.90;;;;;;6349323;22;19999;-90
2024/01/29 07:37:27;;;;;;;45.55;20.25;;;9.10;99.90;;;;;;6353122;22;20020;-91
2024/01/29 07:39:53;;;;;;;36.08;17.80;;;9.10;99.90;;;;;;6354061;22;20033;-90
2024/01/29 07:42:19;;;;;;;38.00;18.55;;;9.10;99.90;;;;;;6354162;22;19998;-91
2024/01/29 07:44:45;;;;;;;38.90;19.30;;;9.10;99.90;;;;;;6358203;22;20083;-91
2024/01/29 07:47:12;;;;;;;40.15;18.30;;;9.10;99.90;;;;;;6381882;22;20078;-91
2024/01/29 07:49:39;;;;;;;40.00;18.27;;;9.10;99.90;;;;;;6357835;22;20014;-93
2024/01/29 07:52:09;;;;;;;46.38;19.63;;;9.10;99.90;;;;;;6344698;22;20003;-92
2024/01/29 07:54:46;;;;;;;43.17;19.70;;;9.10;99.90;;;;;;6344809;22;20051;-92
2024/01/29 07:57:11;;;;;;;44.60;19.55;;;9.00;99.90;;;;;;6343801;22;20032;-92
2024/01/29 07:59:39;;;;;;;49.78;21.30;;;9.10;99.90;;;;;;6343836;22;20009;-92
2024/01/29 08:02:06;;;;;;;44.40;20.52;;;9.10;99.90;;;;;;6344051;22;20010;-92
2024/01/29 08:04:32;;;;;;;45.88;20.45;;;9.10;99.90;;;;;;6343695;22;20097;-92
2024/01/29 08:06:58;;;;;;;50.95;21.50;;;9.10;99.90;;;;;;6345371;22;20007;-91
2024/01/29 08:09:26;;;;;;;41.88;19.92;;;9.10;99.90;;;;;;6344063;22;20003;-91
2024/01/29 08:11:52;;;;;;;47.13;20.02;;;9.10;99.90;;;;;;6343896;22;20447;-91
2024/01/29 08:14:18;;;;;;;40.88;19.05;;;9.10;99.90;;;;;;6318514;22;20002;-91
2024/01/29 08:16:43;;;;;;;48.88;20.33;;;9.10;99.90;;;;;;6343323;22;20059;-91
2024/01/29 08:19:10;;;;;;;47.67;20.17;;;9.10;99.90;;;;;;6343030;22;19998;-91
2024/01/29 08:21:35;;;;;;;37.85;18.58;;;9.10;99.90;;;;;;6343311;22;20058;-92
2024/01/29 08:24:04;;;;;;;43.15;20.10;;;9.10;99.90;;;;;;6343630;22;20030;-93
2024/01/29 08:26:30;;;;;;;43.20;19.65;;;9.10;99.90;;;;;;6342589;22;20013;-91
2024/01/29 08:28:57;;;;;;;40.65;19.00;;;9.20;99.90;;;;;;6345217;22;20007;-91
2024/01/29 08:31:26;;;;;;;35.63;17.70;;;9.10;99.90;;;;;;6348138;22;20006;-90
2024/01/29 08:33:51;;;;;;;36.03;18.52;;;9.20;99.90;;;;;;6350134;22;20025;-91
2024/01/29 08:36:20;;;;;;;37.58;17.17;;;9.10;99.90;;;;;;6346003;22;20414;-93
2024/01/29 08:38:46;;;;;;;45.75;19.02;;;9.20;99.90;;;;;;6345544;22;20010;-92
2024/01/29 08:41:12;;;;;;;35.05;18.02;;;9.10;99.90;;;;;;6345724;22;20002;-92
2024/01/29 08:43:39;;;;;;;36.50;17.42;;;9.20;99.90;;;;;;6345330;22;20014;-91
2024/01/29 08:46:05;;;;;;;36.28;17.02;;;9.20;99.90;;;;;;6346843;22;20031;-92
2024/01/29 08:48:54;;;;;;;39.00;17.45;;;9.20;99.90;;;;;;6344592;22;20325;-92
2024/01/29 08:51:20;;;;;;;35.95;16.67;;;9.20;99.90;;;;;;6341529;22;20604;-91
2024/01/29 08:53:46;;;;;;;41.22;18.25;;;9.20;99.90;;;;;;6316240;22;20002;-91
2024/01/29 08:56:15;;;;;;;32.30;16.30;;;9.30;99.90;;;;;;6312748;22;20070;-92
2024/01/29 08:58:41;;;;;;;37.30;16.67;;;9.30;99.90;;;;;;6314823;22;20033;-92
2024/01/29 09:01:10;;;;;;;29.23;14.90;;;9.30;99.90;;;;;;6339833;22;20029;-92
2024/01/29 09:03:35;;;;;;;33.25;15.25;;;9.30;99.90;;;;;;6313232;22;20003;-92
2024/01/29 09:06:01;;;;;;;25.48;13.52;;;9.30;99.90;;;;;;6313258;22;20014;-92
2024/01/29 09:08:28;;;;;;;32.25;15.05;;;9.30;99.90;;;;;;6313601;22;20446;-92
2024/01/29 09:10:54;;;;;;;31.20;13.55;;;9.40;99.90;;;;;;6314192;22;20085;-91
2024/01/29 09:13:23;;;;;;;31.30;14.52;;;9.40;99.90;;;;;;6314135;22;20014;-92
2024/01/29 09:15:49;;;;;;;30.70;14.37;;;9.40;99.90;;;;;;6312782;22;20098;-91
2024/01/29 09:18:15;;;;;;;33.58;16.15;;;9.50;99.90;;;;;;6308587;22;20026;-92
2024/01/29 09:20:42;;;;;;;32.38;16.45;;;9.50;99.90;;;;;;6337366;22;20083;-92
2024/01/29 09:23:10;;;;;;;26.52;15.10;;;9.50;99.90;;;;;;6308677;22;20031;-92
2024/01/29 09:25:37;;;;;;;33.47;14.85;;;9.50;99.90;;;;;;6308748;22;20477;-93
2024/01/29 09:28:04;;;;;;;32.38;15.32;;;9.50;99.90;;;;;;6323849;22;20003;-92
2024/01/29 09:30:30;;;;;;;35.58;16.42;;;9.50;99.90;;;;;;6309099;22;20021;-93
2024/01/29 09:32:56;;;;;;;39.15;16.58;;;9.50;99.90;;;;;;6310859;22;20007;-92
2024/01/29 09:35:23;;;;;;;38.30;16.45;;;9.60;99.90;;;;;;6312006;22;20089;-92
2024/01/29 09:37:48;;;;;;;34.38;15.73;;;9.60;99.90;;;;;;6311408;22;20002;-91
2024/01/29 09:40:14;;;;;;;37.65;16.13;;;9.60;99.90;;;;;;6337605;22;20458;-91
2024/01/29 09:42:42;;;;;;;33.60;16.63;;;9.60;99.90;;;;;;6313899;22;20009;-92
2024/01/29 09:45:11;;;;;;;54.13;19.52;;;9.60;99.90;;;;;;6338677;22;20228;-92
2024/01/29 09:47:38;;;;;;;39.03;16.95;;;9.60;99.90;;;;;;6339881;22;19999;-92
2024/01/29 09:50:09;;;;;;;40.35;16.83;;;9.60;99.90;;;;;;6313672;22;20453;-91
2024/01/29 09:52:40;;;;;;;44.60;15.70;;;9.70;99.90;;;;;;6312131;22;19999;-92
2024/01/29 09:55:06;;;;;;;30.58;12.82;;;9.70;99.90;;;;;;6315801;22;20429;-92
2024/01/29 09:57:32;;;;;;;34.97;15.43;;;9.70;99.90;;;;;;6314045;22;20003;-92
2024/01/29 09:59:58;;;;;;;47.70;16.88;;;9.80;99.90;;;;;;6318873;22;19998;-91
2024/01/29 10:02:25;;;;;;;38.40;15.30;;;9.80;99.90;;;;;;6333186;22;20087;-91
2024/01/29 10:04:51;;;;;;;37.85;16.05;;;9.80;99.90;;;;;;6328363;22;20006;-90
2024/01/29 10:07:16;;;;;;;41.53;15.02;;;9.80;99.90;;;;;;6312924;22;20442;-92
2024/01/29 10:09:42;;;;;;;37.45;15.48;;;9.80;99.90;;;;;;6312653;22;20213;-92
2024/01/29 10:12:19;;;;;;;38.35;16.10;;;9.90;99.90;;;;;;6316823;22;20110;-92
2024/01/29 10:14:45;;;;;;;34.13;15.43;;;9.90;99.90;;;;;;6314085;22;20006;-94
2024/01/29 10:17:11;;;;;;;37.55;16.10;;;9.90;99.90;;;;;;6315516;22;20003;-92
2024/01/29 10:19:38;;;;;;;36.13;16.15;;;9.90;99.90;;;;;;6338544;22;20038;-93
2024/01/29 10:22:10;;;;;;;41.97;15.38;;;9.90;99.90;;;;;;6312334;22;20057;-93
2024/01/29 10:24:36;;;;;;;37.25;16.17;;;9.90;99.90;;;;;;6286227;22;20003;-92
2024/01/29 10:27:06;;;;;;;31.40;14.63;;;9.90;99.90;;;;;;6312627;22;20003;-92
2024/01/29 10:29:33;;;;;;;39.70;16.50;;;9.90;99.90;;;;;;6312107;22;20007;-95
2024/01/29 10:31:59;;;;;;;35.58;15.23;;;9.90;99.90;;;;;;6312237;22;20465;-95
2024/01/29 10:34:27;;;;;;;35.67;16.50;;;10.00;99.90;;;;;;6311799;22;20002;-93
2024/01/29 10:36:56;;;;;;;42.13;16.83;;;9.90;99.90;;;;;;6313265;22;20007;-93
2024/01/29 10:39:24;;;;;;;36.33;16.42;;;9.90;99.90;;;;;;6312576;22;20007;-93
2024/01/29 10:41:52;;;;;;;50.63;17.67;;;9.90;99.90;;;;;;6316346;22;20003;-93
2024/01/29 10:44:20;;;;;;;38.17;16.52;;;9.90;99.90;;;;;;6318203;22;20030;-94
2024/01/29 10:46:47;;;;;;;43.35;17.15;;;9.90;99.90;;;;;;6314730;22;20496;-94
2024/01/29 10:49:14;;;;;;;48.05;19.08;;;9.90;99.90;;;;;;6313288;22;20003;-92
2024/01/29 10:51:43;;;;;;;41.97;17.02;;;10.00;99.90;;;;;;6314034;22;20046;-93
2024/01/29 10:54:12;;;;;;;61.97;20.42;;;9.90;99.90;;;;;;6313039;22;20018;-94
2024/01/29 10:56:39;;;;;;;53.65;19.08;;;9.90;99.90;;;;;;6313617;22;20003;-93
2024/01/29 10:59:06;;;;;;;51.70;19.77;;;9.90;99.90;;;;;;6313025;22;20006;-94
2024/01/29 11:01:33;;;;;;;62.45;20.70;;;9.90;99.90;;;;;;6312488;22;20440;-92
2024/01/29 11:04:00;;;;;;;60.13;22.52;;;9.90;99.90;;;;;;6312899;22;20007;-92
2024/01/29 11:06:46;;;;;;;52.60;19.83;;;9.90;99.90;;;;;;6312455;22;20018;-93
2024/01/29 11:09:15;;;;;;;51.60;20.17;;;9.90;99.90;;;;;;6311814;22;20034;-93
2024/01/29 11:11:46;;;;;;;63.53;22.13;;;9.90;99.90;;;;;;6338785;22;20007;-92
2024/01/29 11:14:12;;;;;;;54.42;21.75;;;9.90;99.90;;;;;;6338049;22;20082;-93
2024/01/29 11:16:39;;;;;;;57.72;21.35;;;9.90;99.90;;;;;;6312725;22;20003;-93
2024/01/29 11:19:08;;;;;;;61.13;21.55;;;9.90;99.90;;;;;;6313316;22;20084;-94
2024/01/29 11:21:33;;;;;;;59.45;21.55;;;10.00;99.90;;;;;;6313759;22;20437;-93
2024/01/29 11:23:59;;;;;;;62.17;22.90;;;10.00;99.90;;;;;;6312861;22;19998;-93
2024/01/29 11:26:26;;;;;;;51.67;19.52;;;10.00;99.90;;;;;;6339002;22;20434;-93
2024/01/29 11:29:02;;;;;;;56.65;22.30;;;10.00;99.90;;;;;;6349488;22;20009;-93
2024/01/29 11:31:42;;;;;;;55.78;19.80;;;10.00;99.90;;;;;;6343603;22;20013;-93
2024/01/29 11:34:08;;;;;;;57.97;20.90;;;10.00;99.90;;;;;;6358539;22;20049;-95
2024/01/29 11:36:38;;;;;;;65.55;21.10;;;10.00;99.90;;;;;;6359551;22;20034;-92
2024/01/29 11:39:07;;;;;;;68.47;23.77;;;10.00;99.90;;;;;;6316220;22;20033;-93
2024/01/29 11:41:35;;;;;;;54.63;21.17;;;10.00;99.90;;;;;;6341340;22;19999;-92
2024/01/29 11:44:02;;;;;;;65.57;23.38;;;10.00;99.90;;;;;;6341128;22;20022;-92
2024/01/29 11:46:28;;;;;;;53.08;20.52;;;10.00;99.90;;;;;;6312970;22;20015;-92
2024/01/29 11:48:58;;;;;;;69.22;23.23;;;10.00;99.90;;;;;;6313066;22;20003;-92
2024/01/29 11:51:28;;;;;;;67.38;21.17;;;10.10;99.90;;;;;;6339762;22;20144;-93
2024/01/29 11:53:54;;;;;;;57.20;21.47;;;10.10;99.90;;;;;;6331137;22;20007;-93
2024/01/29 11:56:21;;;;;;;56.08;21.08;;;10.00;99.90;;;;;;6314331;22;20063;-93
2024/01/29 11:59:04;;;;;;;58.75;20.90;;;10.10;99.90;;;;;;6339183;22;19999;-93
2024/01/29 12:01:39;;;;;;;65.57;21.38;;;10.00;99.90;;;;;;6313227;22;20003;-93
2024/01/29 12:04:05;;;;;;;57.08;20.77;;;10.10;99.90;;;;;;6312926;22;20010;-94
2024/01/29 12:06:34;;;;;;;60.25;21.13;;;10.10;99.90;;;;;;6339388;22;20015;-93
2024/01/29 12:09:00;;;;;;;60.63;21.67;;;10.10;99.90;;;;;;6317239;22;20026;-93
2024/01/29 12:11:27;;;;;;;63.00;21.17;;;10.10;99.90;;;;;;6349598;22;20064;-94
2024/01/29 12:13:56;;;;;;;52.08;20.80;;;10.20;99.90;;;;;;6326045;22;19999;-92
2024/01/29 12:16:24;;;;;;;61.75;20.33;;;10.20;99.90;;;;;;6328539;22;20026;-93
2024/01/29 12:18:50;;;;;;;54.50;20.15;;;10.20;99.90;;;;;;6321845;22;20010;-92
2024/01/29 12:21:16;;;;;;;45.20;19.75;;;10.20;99.90;;;;;;6322888;22;20013;-93
2024/01/29 12:23:42;;;;;;;45.42;19.00;;;10.20;99.90;;;;;;6330752;22;20053;-92
2024/01/29 12:26:08;;;;;;;52.30;17.67;;;10.20;99.90;;;;;;6322986;22;20014;-92
2024/01/29 12:28:34;;;;;;;44.75;19.17;;;10.20;99.90;;;;;;6326573;22;20003;-92
2024/01/29 12:31:06;;;;;;;38.80;16.65;;;10.20;99.90;;;;;;6324291;22;20009;-91
2024/01/29 12:33:33;;;;;;;52.28;17.67;;;10.30;99.90;;;;;;6314385;22;20002;-93
2024/01/29 12:36:10;;;;;;;41.28;16.73;;;10.30;99.90;;;;;;6314781;22;20015;-94
2024/01/29 12:38:39;;;;;;;53.25;18.80;;;10.30;99.90;;;;;;6340996;22;19995;-92